Time;durP1;ratioP1;P1;durP2;ratioP2;P2;SDS_P1;SDS_P2;PMS_P1;PMS_P2;Temp;Humidity;BMP_temperature;BMP_pressure;BME280_temperature;BME280_humidity;BME280_pressure;Samples;Min_cycle;Max_cycle;Signal;HPM_P1;HPM_P2
2023/06/05 00:08:21;;;;;;;3.70;1.67;;;13.10;1.00;;;;;;20976060;28;20038;-81
2023/06/05 00:18:45;;;;;;;6.03;2.28;;;12.90;1.00;;;;;;20943858;28;20041;-78
2023/06/05 00:29:06;;;;;;;4.10;1.80;;;12.80;1.00;;;;;;20989960;22;20091;-41
2023/06/05 00:39:27;;;;;;;4.55;2.30;;;12.80;1.00;;;;;;20911918;28;20473;-41
2023/06/05 00:49:49;;;;;;;4.63;2.30;;;12.60;1.00;;;;;;20875132;28;20458;-41
2023/06/05 01:00:14;;;;;;;5.95;2.38;;;12.60;1.00;;;;;;20879677;28;20037;-41
2023/06/05 01:10:35;;;;;;;3.75;2.33;;;12.50;1.00;;;;;;20879717;28;20025;-41
2023/06/05 01:21:01;;;;;;;4.63;1.90;;;12.40;1.00;;;;;;20879078;28;20037;-41
2023/06/05 01:31:23;;;;;;;6.63;2.70;;;12.40;1.00;;;;;;20871169;28;20095;-41
2023/06/05 01:41:44;;;;;;;3.88;2.47;;;12.30;1.00;;;;;;20869067;28;20083;-41
2023/06/05 01:52:05;;;;;;;4.88;2.53;;;12.30;1.00;;;;;;20871656;28;20037;-41
2023/06/05 02:02:28;;;;;;;4.00;2.17;;;12.30;1.00;;;;;;20888558;28;20496;-42
2023/06/05 02:12:49;;;;;;;4.60;2.10;;;12.10;1.00;;;;;;20886422;28;20037;-42
2023/06/05 02:23:11;;;;;;;5.88;2.33;;;12.00;1.00;;;;;;20893616;28;20095;-42
2023/06/05 02:33:32;;;;;;;4.35;2.10;;;11.90;1.00;;;;;;20889362;28;20056;-42
2023/06/05 02:43:54;;;;;;;5.47;2.50;;;11.90;1.00;;;;;;20890416;28;20928;-42
2023/06/05 02:54:15;;;;;;;5.57;2.13;;;11.80;1.00;;;;;;20863755;28;20033;-44
2023/06/05 03:04:39;;;;;;;5.82;2.67;;;11.70;1.00;;;;;;20879252;28;20028;-42
2023/06/05 03:15:00;;;;;;;7.35;2.58;;;11.70;1.00;;;;;;20857773;28;20504;-42
2023/06/05 03:25:21;;;;;;;4.18;2.28;;;11.70;1.00;;;;;;20866653;28;20499;-42
2023/06/05 03:35:42;;;;;;;9.30;3.65;;;11.60;1.00;;;;;;20854251;28;20107;-42
2023/06/05 03:46:04;;;;;;;5.90;2.92;;;11.60;1.00;;;;;;20863058;28;20087;-42
2023/06/05 03:56:33;;;;;;;5.93;3.42;;;11.50;1.00;;;;;;20865329;28;20094;-42
2023/06/05 04:06:55;;;;;;;4.93;2.35;;;11.40;1.00;;;;;;20856871;28;20040;-41
2023/06/05 04:17:16;;;;;;;5.65;2.58;;;11.50;1.00;;;;;;20858698;28;20500;-43
2023/06/05 04:27:38;;;;;;;5.47;3.00;;;11.40;1.00;;;;;;20848068;28;20068;-42
2023/06/05 04:38:00;;;;;;;5.82;2.75;;;11.60;1.00;;;;;;20850697;28;20099;-41
2023/06/05 04:48:21;;;;;;;4.95;2.72;;;11.60;1.00;;;;;;20848771;28;20080;-42
2023/06/05 04:58:42;;;;;;;6.60;2.47;;;11.70;1.00;;;;;;20842507;28;20152;-41
2023/06/05 05:09:04;;;;;;;5.35;2.47;;;11.90;1.00;;;;;;20850374;28;20587;-41
2023/06/05 05:19:25;;;;;;;5.15;2.15;;;12.10;1.00;;;;;;20850966;28;20086;-42
2023/06/05 05:29:46;;;;;;;5.75;2.55;;;12.10;1.00;;;;;;20848532;28;20122;-42
2023/06/05 05:40:07;;;;;;;6.60;3.13;;;12.30;1.00;;;;;;20860288;28;20487;-42
2023/06/05 05:50:28;;;;;;;5.57;2.88;;;12.20;1.00;;;;;;20867704;28;20087;-42
2023/06/05 06:00:49;;;;;;;5.57;3.70;;;12.50;1.00;;;;;;20867907;28;20091;-42
2023/06/05 06:11:10;;;;;;;5.93;2.72;;;12.80;1.00;;;;;;20867436;28;20210;-41
2023/06/05 06:21:31;;;;;;;4.22;2.53;;;13.10;1.00;;;;;;20871648;28;20069;-42
2023/06/05 06:31:52;;;;;;;4.68;2.60;;;13.30;1.00;;;;;;20872075;28;20133;-43
2023/06/05 06:42:14;;;;;;;4.35;2.47;;;13.50;1.00;;;;;;20869359;28;20196;-41
2023/06/05 06:52:35;;;;;;;3.75;1.92;;;13.70;1.00;;;;;;20863694;28;20079;-41
2023/06/05 07:02:56;;;;;;;5.05;2.40;;;13.90;1.00;;;;;;20865472;28;20122;-41
2023/06/05 07:13:17;;;;;;;5.60;2.35;;;14.00;1.00;;;;;;20887981;28;20094;-41
2023/06/05 07:23:39;;;;;;;6.00;2.67;;;14.30;1.00;;;;;;20842154;28;20151;-41
2023/06/05 07:34:00;;;;;;;3.60;1.67;;;14.30;1.00;;;;;;20867212;28;20049;-41
2023/06/05 07:44:21;;;;;;;4.57;2.15;;;14.50;1.00;;;;;;20861217;28;20508;-41
2023/06/05 07:54:42;;;;;;;3.30;1.65;;;14.70;1.00;;;;;;20861547;28;20121;-41
2023/06/05 08:05:04;;;;;;;3.22;1.77;;;14.60;1.00;;;;;;20849745;28;20634;-41
2023/06/05 08:15:25;;;;;;;3.53;1.67;;;14.70;1.00;;;;;;20852143;28;20037;-41
2023/06/05 08:25:48;;;;;;;3.20;1.50;;;14.80;1.00;;;;;;20831672;28;20457;-41
2023/06/05 08:36:09;;;;;;;3.30;1.40;;;15.10;1.00;;;;;;20850654;28;20160;-41
2023/06/05 08:46:33;;;;;;;2.72;1.40;;;15.40;1.00;;;;;;20844504;28;20128;-41
2023/06/05 08:56:54;;;;;;;3.50;1.35;;;15.60;1.00;;;;;;20858470;28;20106;-41
2023/06/05 09:07:15;;;;;;;5.22;2.05;;;15.80;1.00;;;;;;20858392;28;20072;-41
2023/06/05 09:17:36;;;;;;;5.20;1.75;;;16.20;1.00;;;;;;20856096;28;20071;-41
2023/06/05 09:28:07;;;;;;;2.78;1.35;;;16.50;1.00;;;;;;20846136;28;20118;-41
2023/06/05 09:38:28;;;;;;;4.00;1.67;;;16.60;1.00;;;;;;20854242;28;20488;-41
2023/06/05 09:49:01;;;;;;;4.70;2.20;;;16.90;1.00;;;;;;20854544;28;20138;-41
2023/06/05 09:59:22;;;;;;;3.60;1.42;;;17.10;1.00;;;;;;20816915;28;20136;-41
2023/06/05 10:09:44;;;;;;;3.28;1.58;;;17.20;1.00;;;;;;20839142;28;20061;-41
2023/06/05 10:20:06;;;;;;;3.28;1.58;;;17.40;1.00;;;;;;20850597;28;20068;-41
2023/06/05 10:30:55;;;;;;;4.05;1.63;;;17.30;1.00;;;;;;20872069;28;20079;-41
2023/06/05 10:41:17;;;;;;;2.77;1.23;;;17.60;1.00;;;;;;20888378;28;20037;-41
2023/06/05 10:51:42;;;;;;;3.63;1.40;;;17.90;1.00;;;;;;20874167;28;20037;-41
2023/06/05 11:02:11;;;;;;;2.47;1.02;;;17.70;1.00;;;;;;20883019;28;20427;-41
2023/06/05 11:12:35;;;;;;;2.80;1.33;;;17.70;1.00;;;;;;20868441;28;20037;-41
2023/06/05 11:22:59;;;;;;;2.97;1.45;;;17.90;1.00;;;;;;20862298;28;20554;-41
2023/06/05 11:33:20;;;;;;;2.67;1.15;;;18.10;1.00;;;;;;20868395;28;20115;-42
2023/06/05 11:43:42;;;;;;;4.80;1.90;;;18.40;1.00;;;;;;20876731;28;20086;-41
2023/06/05 11:54:07;;;;;;;3.10;1.65;;;18.50;1.00;;;;;;20854608;28;20069;-41
2023/06/05 12:04:28;;;;;;;4.07;1.90;;;18.50;1.00;;;;;;20817177;28;20086;-41
2023/06/05 12:14:49;;;;;;;3.63;1.70;;;18.70;1.00;;;;;;20854017;28;20143;-39
2023/06/05 12:25:21;;;;;;;5.20;1.75;;;18.60;1.00;;;;;;20854660;28;20130;-39
2023/06/05 12:35:42;;;;;;;4.18;1.98;;;18.90;1.00;;;;;;20855821;28;20072;-39
2023/06/05 12:46:05;;;;;;;4.45;2.30;;;19.00;1.00;;;;;;20835108;28;20813;-39
2023/06/05 12:56:28;;;;;;;4.03;1.90;;;19.30;1.00;;;;;;20846347;28;20055;-39
2023/06/05 13:06:49;;;;;;;5.22;2.47;;;19.30;1.00;;;;;;20835644;28;20188;-39
2023/06/05 13:17:10;;;;;;;4.63;2.00;;;19.20;1.00;;;;;;20857873;28;20045;-39
2023/06/05 13:27:31;;;;;;;3.15;1.45;;;19.50;1.00;;;;;;20842553;28;20116;-39
2023/06/05 13:37:52;;;;;;;3.53;1.38;;;19.60;1.00;;;;;;20854639;28;20060;-40
2023/06/05 13:48:13;;;;;;;3.85;1.50;;;19.40;1.00;;;;;;20857543;28;20037;-40
2023/06/05 13:58:35;;;;;;;2.85;1.42;;;19.60;1.00;;;;;;20865472;28;20041;-40
2023/06/05 14:08:56;;;;;;;3.92;1.42;;;19.30;1.00;;;;;;20868800;28;20174;-40
2023/06/05 14:19:17;;;;;;;4.10;1.55;;;19.60;1.00;;;;;;20868417;28;20040;-40
2023/06/05 14:29:39;;;;;;;4.30;2.08;;;19.50;1.00;;;;;;20861311;28;20077;-40
2023/06/05 14:40:00;;;;;;;6.28;1.45;;;19.30;1.00;;;;;;20877116;28;20094;-40
2023/06/05 14:50:21;;;;;;;2.85;1.48;;;19.30;1.00;;;;;;20876665;28;20045;-40
2023/06/05 15:00:42;;;;;;;4.32;1.48;;;19.20;1.00;;;;;;20876626;28;20045;-40
2023/06/05 15:11:03;;;;;;;5.90;2.25;;;19.10;1.00;;;;;;20864094;28;20065;-40
2023/06/05 15:21:24;;;;;;;3.63;1.80;;;18.90;1.00;;;;;;20873993;28;20037;-39
2023/06/05 15:31:46;;;;;;;3.05;1.35;;;18.80;1.00;;;;;;20865407;28;20053;-39
2023/06/05 15:42:08;;;;;;;5.43;1.80;;;18.80;1.00;;;;;;20858243;28;20063;-39
2023/06/05 15:52:30;;;;;;;3.65;1.38;;;18.60;1.00;;;;;;20848633;28;20641;-40
2023/06/05 16:02:52;;;;;;;4.65;1.92;;;18.50;1.00;;;;;;20853792;28;20068;-39
2023/06/05 16:13:15;;;;;;;4.82;2.03;;;18.50;1.00;;;;;;20858426;28;20041;-40
2023/06/05 16:23:36;;;;;;;5.13;2.05;;;18.40;1.00;;;;;;20867505;28;20090;-40
2023/06/05 16:34:00;;;;;;;8.30;2.13;;;18.30;1.00;;;;;;20849911;28;20482;-40
2023/06/05 16:44:21;;;;;;;5.68;2.72;;;18.00;1.00;;;;;;20855726;28;20117;-39
2023/06/05 16:54:42;;;;;;;12.48;3.15;;;17.70;1.00;;;;;;20857648;28;20048;-40
2023/06/05 17:05:03;;;;;;;7.38;2.45;;;17.50;1.00;;;;;;20858588;28;20110;-41
2023/06/05 17:15:25;;;;;;;6.53;3.00;;;17.50;1.00;;;;;;20853951;28;20079;-40
2023/06/05 17:25:46;;;;;;;5.32;2.30;;;17.30;1.00;;;;;;20858816;28;20083;-40
2023/06/05 17:36:07;;;;;;;8.15;2.97;;;17.10;1.00;;;;;;20873547;28;20126;-40
2023/06/05 17:46:28;;;;;;;6.60;2.33;;;17.10;1.00;;;;;;20887572;28;20514;-40
2023/06/05 17:56:49;;;;;;;4.57;1.98;;;16.80;1.00;;;;;;20868777;28;20072;-40
2023/06/05 18:07:10;;;;;;;5.82;1.90;;;16.70;1.00;;;;;;20866664;28;20075;-40
2023/06/05 18:17:31;;;;;;;5.40;1.95;;;16.60;1.00;;;;;;20870507;28;20067;-40
2023/06/05 18:27:53;;;;;;;5.55;1.90;;;16.50;1.00;;;;;;20870048;28;20543;-40
2023/06/05 18:38:14;;;;;;;4.28;2.20;;;16.30;1.00;;;;;;20860489;28;20126;-41
2023/06/05 18:48:35;;;;;;;8.00;2.88;;;16.20;1.00;;;;;;20861039;28;20521;-41
2023/06/05 18:58:56;;;;;;;4.18;2.03;;;16.10;1.00;;;;;;20860263;28;20206;-40
2023/06/05 19:09:17;;;;;;;5.13;1.52;;;15.90;1.00;;;;;;20870675;28;20056;-40
2023/06/05 19:19:38;;;;;;;6.45;2.60;;;15.70;1.00;;;;;;20874636;28;20109;-40
2023/06/05 19:29:59;;;;;;;4.97;1.77;;;15.50;1.00;;;;;;20830866;28;20120;-40
2023/06/05 19:40:01;;;;;;;5.72;2.15;;;15.30;1.00;;;;;;20821769;28;20040;-40
2023/06/05 19:50:02;;;;;;;7.00;2.03;;;15.20;1.00;;;;;;20821712;28;21559;-40
2023/06/05 20:00:04;;;;;;;7.53;2.63;;;15.20;1.00;;;;;;20823440;28;20445;-40
2023/06/05 20:10:06;;;;;;;6.72;2.00;;;15.10;1.00;;;;;;20816422;28;20718;-41
2023/06/05 20:20:08;;;;;;;6.35;2.42;;;15.10;1.00;;;;;;20818625;28;20108;-41
2023/06/05 20:30:09;;;;;;;5.57;2.80;;;14.80;1.00;;;;;;20817723;28;20041;-41
2023/06/05 20:40:11;;;;;;;3.95;1.95;;;14.90;1.00;;;;;;20821397;28;20037;-41
2023/06/05 20:50:13;;;;;;;4.95;2.20;;;14.80;1.00;;;;;;20817354;28;20048;-41
2023/06/05 21:00:15;;;;;;;4.20;2.08;;;14.70;1.00;;;;;;20821915;28;20037;-41
2023/06/05 21:10:16;;;;;;;4.95;1.90;;;14.70;1.00;;;;;;20820046;28;20059;-41
2023/06/05 21:20:17;;;;;;;6.55;2.42;;;14.60;1.00;;;;;;20808799;28;20040;-40
2023/06/05 21:30:18;;;;;;;6.22;2.28;;;14.50;1.00;;;;;;20813745;28;20045;-40
2023/06/05 21:40:19;;;;;;;5.75;2.28;;;14.40;1.00;;;;;;20817610;28;20027;-41
2023/06/05 21:50:20;;;;;;;4.88;2.47;;;14.30;1.00;;;;;;20819387;28;20045;-41
2023/06/05 22:00:22;;;;;;;4.05;2.28;;;14.30;1.00;;;;;;20809048;28;20425;-41
2023/06/05 22:10:23;;;;;;;3.50;1.90;;;14.20;1.00;;;;;;20818080;28;20397;-41
2023/06/05 22:20:25;;;;;;;5.28;1.83;;;14.00;1.00;;;;;;20828833;28;20210;-41
2023/06/05 22:30:26;;;;;;;5.35;2.90;;;13.90;1.00;;;;;;20832211;28;20978;-41
2023/06/05 22:40:27;;;;;;;5.32;2.15;;;13.80;1.00;;;;;;20830759;28;20030;-42
2023/06/05 22:50:28;;;;;;;5.88;3.08;;;13.80;1.00;;;;;;20829447;28;20040;-40
2023/06/05 23:00:33;;;;;;;4.47;2.33;;;13.70;1.00;;;;;;20831810;28;20034;-42
2023/06/05 23:10:34;;;;;;;7.82;2.67;;;13.70;1.00;;;;;;20832544;28;20416;-40
2023/06/05 23:20:37;;;;;;;5.82;2.30;;;13.70;1.00;;;;;;20823164;28;20037;-42
2023/06/05 23:30:38;;;;;;;7.82;2.17;;;13.40;1.00;;;;;;20827226;28;20045;-42
2023/06/05 23:40:39;;;;;;;9.52;2.95;;;13.30;1.00;;;;;;20825702;28;20034;-42
2023/06/05 23:50:40;;;;;;;4.78;1.95;;;13.20;1.00;;;;;;20830484;28;20064;-42
